createdAt,value
2018-09-20T00:00:17.803Z,17.60
2018-09-20T00:02:47.102Z,17.50
2018-09-20T00:05:16.426Z,17.50
2018-09-20T00:07:45.662Z,17.60
2018-09-20T00:10:15.012Z,17.60
2018-09-20T00:12:44.303Z,17.60
2018-09-20T00:15:13.587Z,17.60
2018-09-20T00:17:42.903Z,17.60
2018-09-20T00:20:12.208Z,17.60
2018-09-20T00:22:41.515Z,17.60
2018-09-20T00:25:10.861Z,17.50
2018-09-20T00:27:40.171Z,17.50
2018-09-20T00:30:09.567Z,17.50
2018-09-20T00:32:38.851Z,17.50
2018-09-20T00:35:08.247Z,17.50
2018-09-20T00:37:37.562Z,17.40
2018-09-20T00:40:06.951Z,17.30
2018-09-20T00:42:36.214Z,17.30
2018-09-20T00:45:12.070Z,17.20
2018-09-20T00:47:41.435Z,17.10
2018-09-20T00:50:10.716Z,17.10
2018-09-20T00:52:40.040Z,17.20
2018-09-20T00:55:09.304Z,17.10
2018-09-20T00:57:38.706Z,17.00
2018-09-20T01:00:08.047Z,17.00
2018-09-20T01:02:37.464Z,17.10
2018-09-20T01:05:07.039Z,17.10
2018-09-20T01:07:36.391Z,17.00
2018-09-20T01:10:05.982Z,16.90
2018-09-20T01:12:35.272Z,16.80
2018-09-20T01:15:05.004Z,16.70
2018-09-20T01:17:34.312Z,16.70
2018-09-20T01:20:03.799Z,16.70
2018-09-20T01:22:33.205Z,16.60
2018-09-20T01:25:02.488Z,16.60
2018-09-20T01:27:31.843Z,16.60
2018-09-20T01:30:01.109Z,16.60
2018-09-20T01:32:30.464Z,16.50
2018-09-20T01:34:59.768Z,16.60
2018-09-20T01:37:29.110Z,16.60
2018-09-20T01:39:58.449Z,16.60
2018-09-20T01:42:27.754Z,16.60
2018-09-20T01:44:57.090Z,16.60
2018-09-20T01:47:26.399Z,16.60
2018-09-20T01:49:55.843Z,16.50
2018-09-20T01:52:25.188Z,16.30
2018-09-20T01:54:54.495Z,16.20
2018-09-20T01:57:23.873Z,16.20
2018-09-20T01:59:53.188Z,16.20
2018-09-20T02:02:22.510Z,16.30
2018-09-20T02:04:51.798Z,16.40
2018-09-20T02:07:21.091Z,16.40
2018-09-20T02:09:50.408Z,16.40
2018-09-20T02:12:19.803Z,16.40
2018-09-20T02:14:49.111Z,16.40
2018-09-20T02:17:18.423Z,16.30
2018-09-20T02:19:47.731Z,16.20
2018-09-20T02:22:17.035Z,16.20
2018-09-20T02:24:46.302Z,16.20
2018-09-20T02:27:15.606Z,16.20
2018-09-20T02:29:44.921Z,16.10
2018-09-20T02:32:14.226Z,16.00
2018-09-20T02:34:43.515Z,16.10
2018-09-20T02:37:12.865Z,16.00
2018-09-20T02:39:42.203Z,16.10
2018-09-20T02:42:11.543Z,16.10
2018-09-20T02:44:40.928Z,16.10
2018-09-20T02:47:10.283Z,15.90
2018-09-20T02:49:39.589Z,15.80
2018-09-20T02:52:09.115Z,15.80
2018-09-20T02:54:38.435Z,15.80
2018-09-20T02:57:07.830Z,15.70
2018-09-20T02:59:37.287Z,15.70
2018-09-20T03:02:06.703Z,15.70
2018-09-20T03:04:36.019Z,15.70
2018-09-20T03:07:05.387Z,15.80
2018-09-20T03:09:34.717Z,15.80
2018-09-20T03:12:04.060Z,15.80
2018-09-20T03:14:33.424Z,15.90
2018-09-20T03:17:02.980Z,15.90
2018-09-20T03:19:32.332Z,15.90
2018-09-20T03:22:01.769Z,15.90
2018-09-20T03:24:31.054Z,15.80
2018-09-20T03:27:00.484Z,15.80
2018-09-20T03:29:29.807Z,15.70
2018-09-20T03:31:59.147Z,15.70
2018-09-20T03:34:28.379Z,15.70
2018-09-20T03:36:57.644Z,15.60
2018-09-20T03:39:27.010Z,15.50
2018-09-20T03:41:56.349Z,15.40
2018-09-20T03:44:25.687Z,15.40
2018-09-20T03:46:55.055Z,15.40
2018-09-20T03:49:24.322Z,15.30
2018-09-20T03:51:53.632Z,15.40
2018-09-20T03:54:22.917Z,15.40
2018-09-20T03:56:52.254Z,15.50
2018-09-20T03:59:21.512Z,15.50
2018-09-20T04:01:50.935Z,15.50
2018-09-20T04:04:20.363Z,15.40
2018-09-20T04:06:49.713Z,15.40
2018-09-20T04:09:19.093Z,15.30
2018-09-20T04:11:48.504Z,15.40
2018-09-20T04:14:17.852Z,15.40
2018-09-20T04:16:47.153Z,15.40
2018-09-20T04:19:16.490Z,15.40
2018-09-20T04:21:45.794Z,15.40
2018-09-20T04:24:15.055Z,15.50
2018-09-20T04:26:44.424Z,15.50
2018-09-20T04:29:13.760Z,15.50
2018-09-20T04:31:43.166Z,15.50
2018-09-20T04:34:12.407Z,15.40
2018-09-20T04:36:41.756Z,15.40
2018-09-20T04:39:11.200Z,15.40
2018-09-20T04:41:40.495Z,15.40
2018-09-20T04:44:09.787Z,15.40
2018-09-20T04:46:39.051Z,15.30
2018-09-20T04:49:08.379Z,15.30
2018-09-20T04:51:37.700Z,15.20
2018-09-20T04:54:07.172Z,15.20
2018-09-20T04:56:36.516Z,15.20
2018-09-20T04:59:05.755Z,15.20
2018-09-20T05:01:35.157Z,15.10
2018-09-20T05:04:04.479Z,15.00
2018-09-20T05:06:33.768Z,15.00
2018-09-20T05:09:03.192Z,14.90
2018-09-20T05:11:32.551Z,14.90
2018-09-20T05:14:01.971Z,14.80
2018-09-20T05:16:31.332Z,14.90
2018-09-20T05:19:00.684Z,15.00
2018-09-20T05:21:29.991Z,15.00
2018-09-20T05:23:59.387Z,15.10
2018-09-20T05:26:28.804Z,15.10
2018-09-20T05:28:58.127Z,15.20
2018-09-20T05:31:27.428Z,15.20
2018-09-20T05:33:56.720Z,15.20
2018-09-20T05:36:26.095Z,15.20
2018-09-20T05:38:55.394Z,15.20
2018-09-20T05:41:24.707Z,15.20
2018-09-20T05:43:54.107Z,15.20
2018-09-20T05:46:23.402Z,15.20
2018-09-20T05:48:52.719Z,15.30
2018-09-20T05:51:22.051Z,15.30
2018-09-20T05:53:51.367Z,15.30
2018-09-20T05:56:20.683Z,15.40
2018-09-20T05:58:49.974Z,15.40
2018-09-20T06:01:19.367Z,15.50
2018-09-20T06:03:48.761Z,15.60
2018-09-20T06:06:18.144Z,15.60
2018-09-20T06:08:47.518Z,15.70
2018-09-20T06:11:16.835Z,15.70
2018-09-20T06:13:46.291Z,15.70
2018-09-20T06:16:15.584Z,15.70
2018-09-20T06:18:44.968Z,15.70
2018-09-20T06:21:14.288Z,15.80
2018-09-20T06:23:43.581Z,15.80
2018-09-20T06:26:12.989Z,15.90
2018-09-20T06:28:42.257Z,16.00
2018-09-20T06:31:11.549Z,16.00
2018-09-20T06:33:40.987Z,16.10
2018-09-20T06:36:10.432Z,16.20
2018-09-20T06:38:39.728Z,16.20
2018-09-20T06:41:09.050Z,16.30
2018-09-20T06:43:38.448Z,16.30
2018-09-20T06:46:07.847Z,16.40
2018-09-20T06:48:37.216Z,16.40
2018-09-20T06:51:06.624Z,16.40
2018-09-20T06:53:35.896Z,16.50
2018-09-20T06:56:05.269Z,16.50
2018-09-20T06:58:34.544Z,16.60
2018-09-20T07:01:03.863Z,16.60
2018-09-20T07:03:33.276Z,16.70
2018-09-20T07:06:02.791Z,16.80
2018-09-20T07:08:32.126Z,16.80
2018-09-20T07:11:01.452Z,16.80
2018-09-20T07:13:30.843Z,16.90
2018-09-20T07:16:00.186Z,17.10
2018-09-20T07:18:29.545Z,17.20
2018-09-20T07:20:59.063Z,17.40
2018-09-20T07:23:28.415Z,17.60
2018-09-20T07:25:57.857Z,17.80
2018-09-20T07:28:27.128Z,17.90
2018-09-20T07:30:56.453Z,18.00
2018-09-20T07:33:25.802Z,18.10
2018-09-20T07:35:55.101Z,18.10
2018-09-20T07:38:24.395Z,18.20
2018-09-20T07:40:53.874Z,18.20
2018-09-20T07:43:23.206Z,18.40
2018-09-20T07:45:52.835Z,18.70
2018-09-20T07:48:22.748Z,19.00
2018-09-20T07:50:53.632Z,19.20
2018-09-20T07:53:22.974Z,19.50
2018-09-20T07:55:52.359Z,19.90
2018-09-20T07:58:21.699Z,20.10
2018-09-20T08:00:50.989Z,20.30
2018-09-20T08:03:20.481Z,20.20
2018-09-20T08:05:49.969Z,20.30
2018-09-20T08:08:19.435Z,20.40
2018-09-20T08:10:48.743Z,20.60
2018-09-20T08:13:18.036Z,20.80
2018-09-20T08:15:47.454Z,21.10
2018-09-20T08:18:16.803Z,21.50
2018-09-20T08:20:46.114Z,22.00
2018-09-20T08:23:15.495Z,22.30
2018-09-20T08:25:44.832Z,22.70
2018-09-20T08:28:14.131Z,23.00
2018-09-20T08:30:43.454Z,23.40
2018-09-20T08:33:12.739Z,23.60
2018-09-20T08:35:41.974Z,23.90
2018-09-20T08:38:11.257Z,24.10
2018-09-20T08:40:40.463Z,24.30
2018-09-20T08:43:09.866Z,24.50
2018-09-20T08:45:39.096Z,24.50
2018-09-20T08:48:08.410Z,24.60
2018-09-20T08:50:37.712Z,24.70
2018-09-20T08:53:07.415Z,25.00
2018-09-20T08:55:36.749Z,25.30
2018-09-20T08:58:06.222Z,25.50
2018-09-20T09:00:35.554Z,25.50
2018-09-20T09:03:04.961Z,25.70
2018-09-20T09:05:34.208Z,25.80
2018-09-20T09:08:03.682Z,25.90
2018-09-20T09:10:33.123Z,26.10
2018-09-20T09:13:02.463Z,26.40
2018-09-20T09:15:31.807Z,26.50
2018-09-20T09:18:01.100Z,26.70
2018-09-20T09:20:30.399Z,26.80
2018-09-20T09:22:59.715Z,26.70
2018-09-20T09:25:29.099Z,27.10
2018-09-20T09:27:58.448Z,27.10
2018-09-20T09:30:27.821Z,27.20
2018-09-20T09:32:57.189Z,27.40
2018-09-20T09:35:26.549Z,27.50
2018-09-20T09:37:55.861Z,27.40
2018-09-20T09:40:25.229Z,27.60
2018-09-20T09:42:54.806Z,27.50
2018-09-20T09:45:24.044Z,27.50
2018-09-20T09:47:53.432Z,27.80
2018-09-20T09:50:22.799Z,28.20
2018-09-20T09:52:52.047Z,28.30
2018-09-20T09:57:53.430Z,28.90
2018-09-20T10:00:27.952Z,28.70
2018-09-20T10:02:58.476Z,28.60
2018-09-20T10:05:27.878Z,28.90
2018-09-20T10:10:26.112Z,29.30
2018-09-20T10:12:55.547Z,29.50
2018-09-20T10:15:24.849Z,29.50
2018-09-20T10:17:54.157Z,29.60
2018-09-20T10:20:23.494Z,29.40
2018-09-20T10:22:52.800Z,29.30
2018-09-20T10:25:22.156Z,28.90
2018-09-20T10:27:51.551Z,28.80
2018-09-20T10:30:20.869Z,29.00
2018-09-20T10:32:50.198Z,29.40
2018-09-20T10:35:19.539Z,28.90
2018-09-20T10:37:49.204Z,29.00
2018-09-20T10:40:18.511Z,29.00
2018-09-20T10:42:47.940Z,29.20
2018-09-20T10:45:17.235Z,28.90
2018-09-20T10:47:46.483Z,29.10
2018-09-20T10:50:15.733Z,28.90
2018-09-20T10:52:45.072Z,29.00
2018-09-20T10:55:14.370Z,29.20
2018-09-20T10:57:43.669Z,28.90
2018-09-20T11:00:13.092Z,29.40
2018-09-20T11:02:42.539Z,29.90
2018-09-20T11:05:11.892Z,29.90
2018-09-20T11:07:41.216Z,29.90
2018-09-20T11:10:10.742Z,30.20
2018-09-20T11:12:40.046Z,30.30
2018-09-20T11:15:09.396Z,30.30
2018-09-20T11:17:38.684Z,30.60
2018-09-20T11:20:08.060Z,30.40
2018-09-20T11:22:37.379Z,30.50
2018-09-20T11:25:06.882Z,30.10
2018-09-20T11:27:36.206Z,30.40
2018-09-20T11:30:05.732Z,30.30
2018-09-20T11:32:35.116Z,30.20
2018-09-20T11:35:04.614Z,30.20
2018-09-20T11:37:33.958Z,30.30
2018-09-20T11:40:03.319Z,30.50
2018-09-20T11:42:32.623Z,30.80
2018-09-20T11:45:01.934Z,30.90
2018-09-20T11:47:31.229Z,31.20
2018-09-20T11:50:00.514Z,31.20
2018-09-20T11:52:29.887Z,31.60
2018-09-20T11:54:59.162Z,31.60
2018-09-20T11:57:28.523Z,31.90
2018-09-20T11:59:57.862Z,31.50
2018-09-20T12:02:27.152Z,31.40
2018-09-20T12:04:56.493Z,31.20
2018-09-20T12:07:25.823Z,31.00
2018-09-20T12:09:55.227Z,31.50
2018-09-20T12:12:24.640Z,31.70
2018-09-20T12:14:53.984Z,31.70
2018-09-20T12:17:23.436Z,31.60
2018-09-20T12:22:21.799Z,32.10
2018-09-20T12:24:51.262Z,31.70
2018-09-20T12:27:20.609Z,31.80
2018-09-20T12:29:49.971Z,31.90
2018-09-20T12:32:19.330Z,32.10
2018-09-20T12:34:48.639Z,32.50
2018-09-20T12:37:18.099Z,32.40
2018-09-20T12:39:47.487Z,32.30
2018-09-20T12:42:16.847Z,32.40
2018-09-20T12:44:46.188Z,32.50
2018-09-20T12:47:15.543Z,32.70
2018-09-20T12:49:44.896Z,32.50
2018-09-20T12:52:14.223Z,32.60
2018-09-20T12:54:45.631Z,32.60
2018-09-20T12:57:15.113Z,32.30
2018-09-20T12:59:44.469Z,32.40
2018-09-20T13:02:13.918Z,32.40
2018-09-20T13:04:43.267Z,32.80
2018-09-20T13:07:12.703Z,32.90
2018-09-20T13:09:42.013Z,33.20
2018-09-20T13:12:11.346Z,32.90
2018-09-20T13:14:40.668Z,32.80
2018-09-20T13:17:10.061Z,33.40
2018-09-20T13:19:39.414Z,33.10
2018-09-20T13:22:08.902Z,33.00
2018-09-20T13:24:38.381Z,32.90
2018-09-20T13:27:07.761Z,33.30
2018-09-20T13:29:37.102Z,33.40
2018-09-20T13:32:06.505Z,33.10
2018-09-20T13:34:35.839Z,32.90
2018-09-20T13:37:05.426Z,33.10
2018-09-20T13:39:34.822Z,32.80
2018-09-20T13:42:04.199Z,32.90
2018-09-20T13:44:33.511Z,33.00
2018-09-20T13:47:03.091Z,33.00
2018-09-20T13:49:32.463Z,32.50
2018-09-20T13:52:01.836Z,32.30
2018-09-20T13:54:31.182Z,32.50
2018-09-20T13:57:00.604Z,32.60
2018-09-20T13:59:30.946Z,32.50
2018-09-20T14:02:00.364Z,32.30
2018-09-20T14:04:29.695Z,32.30
2018-09-20T14:06:59.124Z,32.40
2018-09-20T14:09:28.548Z,32.40
2018-09-20T14:11:57.964Z,32.80
2018-09-20T14:14:27.312Z,32.70
2018-09-20T14:16:56.666Z,32.90
2018-09-20T14:19:26.114Z,32.80
2018-09-20T14:21:57.643Z,32.80
2018-09-20T14:24:26.902Z,32.90
2018-09-20T14:27:36.154Z,32.40
2018-09-20T14:30:05.262Z,32.50
2018-09-20T14:32:34.406Z,31.90
2018-09-20T14:35:08.835Z,31.90
2018-09-20T14:37:37.911Z,31.70
2018-09-20T14:40:07.010Z,32.10
2018-09-20T14:42:36.104Z,31.90
2018-09-20T14:45:05.246Z,32.10
2018-09-20T14:47:34.322Z,32.00
2018-09-20T14:50:03.403Z,31.90
2018-09-20T14:52:32.484Z,32.00
2018-09-20T14:55:01.531Z,31.60
2018-09-20T14:57:30.593Z,31.60
2018-09-20T14:59:59.634Z,31.70
2018-09-20T15:02:28.767Z,31.70
2018-09-20T15:04:57.774Z,31.40
2018-09-20T15:07:26.869Z,31.40
2018-09-20T15:09:56.089Z,31.30
2018-09-20T15:12:25.189Z,31.40
2018-09-20T15:14:54.279Z,31.20
2018-09-20T15:17:23.324Z,31.20
2018-09-20T15:19:52.397Z,31.20
2018-09-20T15:22:21.439Z,31.10
2018-09-20T15:24:50.529Z,31.00
2018-09-20T15:27:19.678Z,30.50
2018-09-20T15:29:48.799Z,30.60
2018-09-20T15:32:17.978Z,30.50
2018-09-20T15:34:47.109Z,30.60
2018-09-20T15:37:16.247Z,30.70
2018-09-20T15:39:45.704Z,30.50
2018-09-20T15:42:21.666Z,30.50
2018-09-20T15:44:51.034Z,30.50
2018-09-20T15:47:20.437Z,30.40
2018-09-20T15:49:49.796Z,30.30
2018-09-20T15:52:19.177Z,30.20
2018-09-20T15:54:48.574Z,30.20
2018-09-20T15:59:46.820Z,30.40
2018-09-20T16:02:16.301Z,30.50
2018-09-20T16:04:45.700Z,30.50
2018-09-20T16:07:14.987Z,30.60
2018-09-20T16:09:44.404Z,30.60
2018-09-20T16:12:13.815Z,30.50
2018-09-20T16:14:43.132Z,30.50
2018-09-20T16:17:12.548Z,30.30
2018-09-20T16:19:41.912Z,30.20
2018-09-20T16:22:11.242Z,30.00
2018-09-20T16:24:40.732Z,30.10
2018-09-20T16:27:10.037Z,30.10
2018-09-20T16:30:51.331Z,29.80
2018-09-20T16:33:39.801Z,29.70
2018-09-20T16:36:38.440Z,29.70
2018-09-20T16:39:15.767Z,29.80
2018-09-20T16:41:50.102Z,29.90
2018-09-20T16:44:26.095Z,29.80
2018-09-20T16:46:55.444Z,29.70
2018-09-20T16:49:24.781Z,29.80
2018-09-20T16:51:59.190Z,29.70
2018-09-20T16:54:29.066Z,29.50
2018-09-20T16:56:58.399Z,29.30
2018-09-20T16:59:27.719Z,28.90
2018-09-20T17:01:57.091Z,28.80
2018-09-20T17:04:26.445Z,28.50
2018-09-20T17:06:55.792Z,28.20
2018-09-20T17:09:25.168Z,28.10
2018-09-20T17:11:54.531Z,27.90
2018-09-20T17:14:23.976Z,27.60
2018-09-20T17:16:53.182Z,27.30
2018-09-20T17:19:22.516Z,27.10
2018-09-20T17:21:51.818Z,27.00
2018-09-20T17:24:21.276Z,26.90
2018-09-20T17:26:50.650Z,27.00
2018-09-20T17:29:19.901Z,26.90
2018-09-20T17:31:49.323Z,26.90
2018-09-20T17:34:19.013Z,26.80
2018-09-20T17:36:49.416Z,26.70
2018-09-20T17:39:19.924Z,26.50
2018-09-20T17:41:50.233Z,26.40
2018-09-20T17:44:19.607Z,26.20
2018-09-20T17:46:48.936Z,26.00
2018-09-20T17:49:18.294Z,25.90
2018-09-20T17:51:48.003Z,25.70
2018-09-20T17:54:17.845Z,25.50
2018-09-20T17:56:47.634Z,25.30
2018-09-20T17:59:17.037Z,25.20
2018-09-20T18:01:46.404Z,25.10
2018-09-20T18:04:15.707Z,25.00
2018-09-20T18:06:45.064Z,24.90
2018-09-20T18:09:14.613Z,24.80
2018-09-20T18:11:44.072Z,24.60
2018-09-20T18:14:13.416Z,24.50
2018-09-20T18:16:42.740Z,24.30
2018-09-20T18:19:12.202Z,24.30
2018-09-20T18:21:41.503Z,24.10
2018-09-20T18:24:10.845Z,23.90
2018-09-20T18:26:40.089Z,23.80
2018-09-20T18:29:09.436Z,23.70
2018-09-20T18:31:38.784Z,23.60
2018-09-20T18:34:08.119Z,23.50
2018-09-20T18:36:37.444Z,23.40
2018-09-20T18:39:09.907Z,23.30
2018-09-20T18:41:39.224Z,23.20
2018-09-20T18:44:09.342Z,23.00
2018-09-20T18:46:38.816Z,22.90
2018-09-20T18:49:08.535Z,22.90
2018-09-20T18:51:37.983Z,22.80
2018-09-20T18:54:07.341Z,22.80
2018-09-20T18:56:36.706Z,22.70
2018-09-20T18:59:06.203Z,22.50
2018-09-20T19:01:35.709Z,22.40
2018-09-20T19:04:05.087Z,22.40
2018-09-20T19:06:34.407Z,22.40
2018-09-20T19:09:04.287Z,22.30
2018-09-20T19:11:33.667Z,22.30
2018-09-20T19:14:03.057Z,22.20
2018-09-20T19:16:32.561Z,22.10
2018-09-20T19:19:01.952Z,22.00
2018-09-20T19:21:31.266Z,21.90
2018-09-20T19:24:00.660Z,21.80
2018-09-20T19:26:30.036Z,21.70
2018-09-20T19:28:59.334Z,21.60
2018-09-20T19:31:28.715Z,21.50
2018-09-20T19:33:58.032Z,21.50
2018-09-20T19:36:27.339Z,21.30
2018-09-20T19:38:56.713Z,21.30
2018-09-20T19:41:26.067Z,21.20
2018-09-20T19:43:55.422Z,21.10
2018-09-20T19:46:24.644Z,21.00
2018-09-20T19:48:54.043Z,20.80
2018-09-20T19:51:23.443Z,20.70
2018-09-20T19:53:52.775Z,20.70
2018-09-20T19:56:22.155Z,20.60
2018-09-20T19:58:51.741Z,20.50
2018-09-20T20:01:21.147Z,20.40
2018-09-20T20:03:50.502Z,20.40
2018-09-20T20:06:19.934Z,20.40
2018-09-20T20:08:49.272Z,20.40
2018-09-20T20:11:18.544Z,20.20
2018-09-20T20:13:47.856Z,20.10
2018-09-20T20:16:17.114Z,20.10
2018-09-20T20:18:46.720Z,20.00
2018-09-20T20:21:16.028Z,19.90
2018-09-20T20:23:45.392Z,19.90
2018-09-20T20:26:14.863Z,19.80
2018-09-20T20:28:44.255Z,19.80
2018-09-20T20:31:13.574Z,19.80
2018-09-20T20:33:42.891Z,19.60
2018-09-20T20:36:12.277Z,19.50
2018-09-20T20:38:41.620Z,19.40
2018-09-20T20:41:11.015Z,19.40
2018-09-20T20:43:40.366Z,19.30
2018-09-20T20:46:09.636Z,19.30
2018-09-20T20:48:38.963Z,19.30
2018-09-20T20:51:08.323Z,19.30
2018-09-20T20:53:37.778Z,19.20
2018-09-20T20:56:07.120Z,19.20
2018-09-20T20:58:36.570Z,19.10
2018-09-20T21:01:05.851Z,19.10
2018-09-20T21:03:35.119Z,19.10
2018-09-20T21:06:04.402Z,19.00
2018-09-20T21:08:33.703Z,18.90
2018-09-20T21:11:03.087Z,18.90
2018-09-20T21:13:32.467Z,18.80
2018-09-20T21:16:01.773Z,18.80
2018-09-20T21:18:31.041Z,18.70
2018-09-20T21:21:03.695Z,18.80
2018-09-20T21:23:33.015Z,18.70
2018-09-20T21:26:02.520Z,18.60
2018-09-20T21:28:31.807Z,18.50
2018-09-20T21:31:01.125Z,18.50
2018-09-20T21:33:30.475Z,18.50
2018-09-20T21:35:59.801Z,18.40
2018-09-20T21:38:29.075Z,18.40
2018-09-20T21:40:58.518Z,18.30
2018-09-20T21:43:27.913Z,18.30
2018-09-20T21:45:57.179Z,18.30
2018-09-20T21:48:26.610Z,18.30
2018-09-20T21:50:56.119Z,18.20
2018-09-20T21:53:25.477Z,18.20
2018-09-20T21:55:54.882Z,18.20
2018-09-20T21:58:24.252Z,18.00
2018-09-20T22:00:58.665Z,18.00
2018-09-20T22:03:27.906Z,18.00
2018-09-20T22:05:57.311Z,17.90
2018-09-20T22:08:26.600Z,18.00
2018-09-20T22:10:56.069Z,17.90
2018-09-20T22:13:25.408Z,17.90
2018-09-20T22:15:54.676Z,17.80
2018-09-20T22:18:24.023Z,17.80
2018-09-20T22:20:53.276Z,17.70
2018-09-20T22:23:22.648Z,17.70
2018-09-20T22:25:52.019Z,17.60
2018-09-20T22:28:21.337Z,17.40
2018-09-20T22:30:50.760Z,17.30
2018-09-20T22:33:20.104Z,17.40
2018-09-20T22:35:49.546Z,17.40
2018-09-20T22:38:18.891Z,17.30
2018-09-20T22:40:48.180Z,17.30
2018-09-20T22:43:17.487Z,17.30
2018-09-20T22:45:46.854Z,17.20
2018-09-20T22:48:16.199Z,17.10
2018-09-20T22:50:45.536Z,17.00
2018-09-20T22:53:14.808Z,16.90
2018-09-20T22:55:44.132Z,16.90
2018-09-20T22:58:13.466Z,16.80
2018-09-20T23:00:42.830Z,16.70
2018-09-20T23:03:12.476Z,16.80
2018-09-20T23:05:41.830Z,16.80
2018-09-20T23:08:11.236Z,16.70
2018-09-20T23:10:40.650Z,16.70
2018-09-20T23:13:09.996Z,16.60
2018-09-20T23:15:39.314Z,16.50
2018-09-20T23:18:08.706Z,16.40
2018-09-20T23:20:37.996Z,16.40
2018-09-20T23:23:07.600Z,16.30
2018-09-20T23:25:37.081Z,16.20
2018-09-20T23:28:06.474Z,16.20
2018-09-20T23:30:35.773Z,16.20
2018-09-20T23:33:05.071Z,16.20
2018-09-20T23:35:34.363Z,16.10
2018-09-20T23:38:03.771Z,16.10
2018-09-20T23:40:33.089Z,16.20
2018-09-20T23:43:02.474Z,16.10
2018-09-20T23:45:31.764Z,16.00
2018-09-20T23:48:01.093Z,15.90
2018-09-20T23:50:30.386Z,16.00
2018-09-20T23:52:59.767Z,16.00
2018-09-20T23:55:29.127Z,15.90
2018-09-20T23:57:58.515Z,15.90
